Time;durP1;ratioP1;P1;durP2;ratioP2;P2;SDS_P1;SDS_P2;PMS_P1;PMS_P2;Temp;Humidity;BMP_temperature;BMP_pressure;BME280_temperature;BME280_humidity;BME280_pressure;Samples;Min_cycle;Max_cycle;Signal;HPM_P1;HPM_P2
2024/02/29 00:00:44;;;;;;;;;;;;;;;3.45;68.32;98377.72;5034932;28;19932;-63
2024/02/29 00:03:12;;;;;;;;;;;;;;;3.39;68.85;98382.22;5030167;28;19932;-62
2024/02/29 00:05:42;;;;;;;;;;;;;;;3.23;69.34;98375.06;5028256;28;19929;-63
2024/02/29 00:08:10;;;;;;;;;;;;;;;3.31;69.06;98366.59;5027819;28;19967;-62
2024/02/29 00:10:38;;;;;;;;;;;;;;;3.19;69.36;98373.94;5033073;28;20318;-61
2024/02/29 00:13:06;;;;;;;;;;;;;;;3.49;68.68;98363.53;5023811;28;19975;-62
2024/02/29 00:15:35;;;;;;;;;;;;;;;3.41;68.98;98361.31;5023818;28;19925;-62
2024/02/29 00:18:03;;;;;;;;;;;;;;;3.49;68.86;98352.78;5031510;28;19961;-62
2024/02/29 00:20:31;;;;;;;;;;;;;;;3.48;69.02;98350.38;5030827;28;19936;-62
2024/02/29 00:22:58;;;;;;;;;;;;;;;3.31;69.53;98345.09;5034910;28;19972;-61
2024/02/29 00:25:26;;;;;;;;;;;;;;;3.21;69.80;98345.81;5028976;28;20016;-63
2024/02/29 00:27:54;;;;;;;;;;;;;;;3.42;69.26;98346.81;5033228;28;20635;-62
2024/02/29 00:30:21;;;;;;;;;;;;;;;3.45;69.18;98335.56;5025061;28;19925;-62
2024/02/29 00:32:51;;;;;;;;;;;;;;;3.36;69.23;98337.09;5015867;28;19940;-62
2024/02/29 00:35:22;;;;;;;;;;;;;;;3.41;69.41;98329.09;5028774;28;20382;-62
2024/02/29 00:37:50;;;;;;;;;;;;;;;3.28;69.65;98329.47;5019201;28;19926;-62
2024/02/29 00:40:18;;;;;;;;;;;;;;;3.49;69.22;98327.81;5022356;28;19928;-62
2024/02/29 00:42:46;;;;;;;;;;;;;;;3.48;69.40;98324.31;5032174;28;20309;-61
2024/02/29 00:45:13;;;;;;;;;;;;;;;3.37;68.99;98322.59;5033251;28;20426;-61
2024/02/29 00:47:41;;;;;;;;;;;;;;;3.35;69.43;98319.34;5029482;28;19926;-61
2024/02/29 00:50:10;;;;;;;;;;;;;;;3.36;69.42;98315.63;5029683;28;19929;-62
2024/02/29 00:52:38;;;;;;;;;;;;;;;3.52;68.88;98313.88;5028487;28;19925;-62
2024/02/29 00:55:07;;;;;;;;;;;;;;;3.55;69.23;98306.09;5025041;28;19926;-62
2024/02/29 00:57:35;;;;;;;;;;;;;;;3.55;69.49;98300.72;5029836;28;20480;-62
2024/02/29 01:00:03;;;;;;;;;;;;;;;3.68;68.84;98294.94;5030134;28;20382;-62
2024/02/29 01:02:31;;;;;;;;;;;;;;;3.57;69.40;98287.03;5032450;28;19931;-62
2024/02/29 01:04:59;;;;;;;;;;;;;;;3.35;69.93;98292.47;5045978;28;19924;-62
2024/02/29 01:07:28;;;;;;;;;;;;;;;3.55;69.50;98294.53;5031148;28;19971;-62
2024/02/29 01:09:58;;;;;;;;;;;;;;;3.36;70.19;98297.63;5036054;28;20403;-62
2024/02/29 01:12:26;;;;;;;;;;;;;;;3.37;70.62;98288.50;5022115;28;19942;-62
2024/02/29 01:14:53;;;;;;;;;;;;;;;3.19;71.12;98290.72;5037242;28;19929;-62
2024/02/29 01:17:22;;;;;;;;;;;;;;;3.31;70.84;98286.03;5048483;28;20282;-62
2024/02/29 01:19:50;;;;;;;;;;;;;;;3.53;70.09;98278.69;5039328;28;19940;-62
2024/02/29 01:22:18;;;;;;;;;;;;;;;3.56;69.98;98267.41;5028591;28;19929;-61
2024/02/29 01:24:47;;;;;;;;;;;;;;;3.44;69.92;98255.25;5029781;28;19925;-62
2024/02/29 01:27:15;;;;;;;;;;;;;;;3.26;70.64;98265.31;5028305;28;19991;-62
2024/02/29 01:29:43;;;;;;;;;;;;;;;3.32;70.75;98263.47;5029478;28;19925;-62
2024/02/29 01:32:10;;;;;;;;;;;;;;;3.41;70.46;98267.31;5027695;28;19936;-62
2024/02/29 01:34:44;;;;;;;;;;;;;;;3.45;70.22;98276.47;5029552;28;20294;-62
2024/02/29 01:37:12;;;;;;;;;;;;;;;3.36;70.80;98264.59;5028444;28;19925;-62
2024/02/29 01:39:41;;;;;;;;;;;;;;;3.49;70.36;98255.28;5028389;28;19929;-61
2024/02/29 01:42:10;;;;;;;;;;;;;;;3.59;70.13;98256.16;5031009;28;19929;-61
2024/02/29 01:44:39;;;;;;;;;;;;;;;3.59;70.06;98248.09;5009988;28;19925;-62
2024/02/29 01:47:09;;;;;;;;;;;;;;;3.43;70.89;98249.06;5009575;28;19933;-63
2024/02/29 01:49:37;;;;;;;;;;;;;;;3.59;70.37;98248.09;5030726;28;19956;-62
2024/02/29 01:52:05;;;;;;;;;;;;;;;3.78;69.99;98250.38;5049451;28;19940;-63
2024/02/29 01:54:32;;;;;;;;;;;;;;;3.82;69.34;98243.41;5029186;28;20389;-62
2024/02/29 01:57:01;;;;;;;;;;;;;;;3.74;70.14;98246.59;5029138;28;19951;-63
2024/02/29 01:59:30;;;;;;;;;;;;;;;3.85;69.83;98253.66;5039281;28;19971;-62
2024/02/29 02:01:59;;;;;;;;;;;;;;;3.38;71.49;98249.03;5036671;28;19952;-62
2024/02/29 02:04:28;;;;;;;;;;;;;;;3.62;70.94;98247.59;5038978;28;19980;-62
2024/02/29 02:06:56;;;;;;;;;;;;;;;3.82;70.08;98243.41;5038309;28;20429;-62
2024/02/29 02:09:27;;;;;;;;;;;;;;;3.96;69.92;98243.78;5037790;28;20330;-62
2024/02/29 02:11:55;;;;;;;;;;;;;;;4.03;69.60;98231.72;5032564;28;20450;-61
2024/02/29 02:14:24;;;;;;;;;;;;;;;3.90;70.10;98238.38;5032353;28;20315;-62
2024/02/29 02:16:53;;;;;;;;;;;;;;;3.95;70.30;98237.59;5034766;28;20570;-61
2024/02/29 02:19:21;;;;;;;;;;;;;;;4.01;69.93;98231.19;5032611;28;19933;-61
2024/02/29 02:21:50;;;;;;;;;;;;;;;4.08;69.75;98237.13;5032325;28;19925;-62
2024/02/29 02:24:20;;;;;;;;;;;;;;;4.13;69.78;98226.41;5032354;28;19994;-61
2024/02/29 02:26:49;;;;;;;;;;;;;;;4.09;70.17;98230.66;5032303;28;19925;-62
2024/02/29 02:29:17;;;;;;;;;;;;;;;4.17;70.48;98230.19;5032203;28;19926;-61
2024/02/29 02:31:45;;;;;;;;;;;;;;;4.07;70.80;98222.06;5020670;28;19925;-61
2024/02/29 02:34:13;;;;;;;;;;;;;;;4.14;70.23;98229.88;5032223;28;19933;-62
2024/02/29 02:36:41;;;;;;;;;;;;;;;4.15;70.38;98229.63;5038664;28;20541;-61
2024/02/29 02:39:11;;;;;;;;;;;;;;;4.24;70.12;98226.44;5035703;28;19925;-62
2024/02/29 02:41:44;;;;;;;;;;;;;;;4.24;69.98;98223.75;5031675;28;19929;-62
2024/02/29 02:44:13;;;;;;;;;;;;;;;4.28;69.99;98216.78;5031608;28;19932;-62
2024/02/29 02:46:40;;;;;;;;;;;;;;;4.27;70.14;98218.66;5035510;28;19944;-62
2024/02/29 02:49:08;;;;;;;;;;;;;;;4.25;71.05;98220.00;5031368;28;19925;-62
2024/02/29 02:51:36;;;;;;;;;;;;;;;4.38;70.07;98224.91;5031899;28;20055;-61
2024/02/29 02:54:04;;;;;;;;;;;;;;;4.14;70.71;98214.56;5030760;28;20310;-62
2024/02/29 02:56:33;;;;;;;;;;;;;;;4.18;71.09;98206.78;5031421;28;20039;-62
2024/02/29 02:59:03;;;;;;;;;;;;;;;4.24;70.56;98199.53;5031955;28;20051;-62
2024/02/29 03:01:30;;;;;;;;;;;;;;;4.23;71.15;98189.88;5030984;28;19970;-62
2024/02/29 03:03:58;;;;;;;;;;;;;;;4.14;71.32;98187.66;5037036;28;19960;-62
2024/02/29 03:06:27;;;;;;;;;;;;;;;4.23;71.02;98181.81;5043560;28;20086;-62
2024/02/29 03:08:54;;;;;;;;;;;;;;;4.10;71.42;98186.59;5036824;28;20447;-62
2024/02/29 03:11:24;;;;;;;;;;;;;;;4.15;71.11;98191.97;5046968;28;19929;-62
2024/02/29 03:13:53;;;;;;;;;;;;;;;4.37;70.64;98188.31;5033888;28;19975;-62
2024/02/29 03:16:22;;;;;;;;;;;;;;;4.19;71.35;98192.25;5035692;28;19975;-62
2024/02/29 03:18:50;;;;;;;;;;;;;;;4.38;70.82;98189.94;5027213;28;19925;-62
2024/02/29 03:21:17;;;;;;;;;;;;;;;4.30;70.67;98190.44;5024903;28;19929;-61
2024/02/29 03:23:45;;;;;;;;;;;;;;;4.26;71.02;98186.63;5026592;28;19929;-62
2024/02/29 03:26:13;;;;;;;;;;;;;;;4.40;70.81;98190.47;5023656;28;20402;-61
2024/02/29 03:28:41;;;;;;;;;;;;;;;4.44;70.79;98181.59;5017796;28;20020;-62
2024/02/29 03:31:12;;;;;;;;;;;;;;;4.36;71.20;98181.28;5024685;28;19925;-61
2024/02/29 03:33:40;;;;;;;;;;;;;;;4.43;71.27;98179.19;5016130;28;20016;-60
2024/02/29 03:36:08;;;;;;;;;;;;;;;4.48;70.93;98181.91;5020460;28;19975;-61
2024/02/29 03:38:36;;;;;;;;;;;;;;;4.30;71.35;98179.66;5027473;28;19925;-62
2024/02/29 03:41:06;;;;;;;;;;;;;;;4.47;71.14;98180.25;5036226;28;20357;-62
2024/02/29 03:43:35;;;;;;;;;;;;;;;4.59;70.76;98180.03;5034889;28;19924;-62
2024/02/29 03:46:02;;;;;;;;;;;;;;;4.51;71.41;98175.97;5036154;28;20028;-62
2024/02/29 03:48:31;;;;;;;;;;;;;;;4.53;71.50;98179.22;5043515;28;19925;-62
2024/02/29 03:50:59;;;;;;;;;;;;;;;4.55;71.10;98174.38;5027783;28;19926;-61
2024/02/29 03:53:27;;;;;;;;;;;;;;;4.36;72.02;98170.53;5030966;28;19956;-62
2024/02/29 03:55:55;;;;;;;;;;;;;;;4.51;71.52;98169.78;5032842;28;19963;-62
2024/02/29 03:58:25;;;;;;;;;;;;;;;4.46;71.23;98165.19;5031042;28;20389;-62
2024/02/29 04:00:53;;;;;;;;;;;;;;;4.49;71.63;98170.06;5031113;28;19928;-62
2024/02/29 04:03:21;;;;;;;;;;;;;;;4.56;71.23;98159.03;5032077;28;19956;-61
2024/02/29 04:05:50;;;;;;;;;;;;;;;4.49;71.58;98161.97;5043968;28;19931;-61
2024/02/29 04:08:18;;;;;;;;;;;;;;;4.55;71.57;98163.59;5015582;28;20567;-62
2024/02/29 04:10:48;;;;;;;;;;;;;;;4.61;71.73;98157.16;5022010;28;20383;-62
2024/02/29 04:13:16;;;;;;;;;;;;;;;4.61;71.20;98156.34;5031051;28;20352;-62
2024/02/29 04:15:44;;;;;;;;;;;;;;;4.70;70.98;98158.25;5046094;28;20589;-61
2024/02/29 04:18:19;;;;;;;;;;;;;;;4.69;71.46;98156.66;5039667;28;20558;-63
2024/02/29 04:20:47;;;;;;;;;;;;;;;4.66;71.49;98149.09;5031831;28;20027;-62
2024/02/29 04:23:16;;;;;;;;;;;;;;;4.57;71.79;98142.59;5021747;28;19957;-61
2024/02/29 04:25:45;;;;;;;;;;;;;;;4.58;71.96;98138.88;5029429;28;19929;-61
2024/02/29 04:28:14;;;;;;;;;;;;;;;4.70;71.42;98142.09;5021146;28;20006;-62
2024/02/29 04:30:42;;;;;;;;;;;;;;;4.80;71.08;98140.50;5028324;28;20697;-62
2024/02/29 04:33:11;;;;;;;;;;;;;;;4.84;71.26;98137.00;5028475;28;20356;-61
2024/02/29 04:35:39;;;;;;;;;;;;;;;4.76;71.32;98137.53;5032859;28;19947;-63
2024/02/29 04:38:07;;;;;;;;;;;;;;;4.86;71.36;98128.66;5026743;28;20019;-61
2024/02/29 04:40:36;;;;;;;;;;;;;;;4.80;71.31;98132.44;5025562;28;19933;-61
2024/02/29 04:43:03;;;;;;;;;;;;;;;4.86;71.32;98128.66;5038746;28;19936;-61
2024/02/29 04:45:31;;;;;;;;;;;;;;;4.87;71.22;98128.38;5040538;28;19925;-61
2024/02/29 04:47:59;;;;;;;;;;;;;;;4.87;72.07;98130.28;5030062;28;20380;-62
2024/02/29 04:50:27;;;;;;;;;;;;;;;4.92;71.68;98132.97;5029231;28;19968;-62
2024/02/29 04:52:54;;;;;;;;;;;;;;;5.03;71.35;98139.16;5029418;28;19929;-62
2024/02/29 04:55:22;;;;;;;;;;;;;;;5.12;70.84;98134.84;5026623;28;19925;-62
2024/02/29 04:57:51;;;;;;;;;;;;;;;5.10;71.01;98132.41;5027638;28;19932;-62
2024/02/29 05:00:19;;;;;;;;;;;;;;;5.05;71.07;98135.09;5028242;28;20451;-61
2024/02/29 05:02:46;;;;;;;;;;;;;;;5.12;71.22;98132.97;5028663;28;19925;-62
2024/02/29 05:05:15;;;;;;;;;;;;;;;5.12;70.99;98118.69;5025816;28;19932;-62
2024/02/29 05:07:43;;;;;;;;;;;;;;;5.23;71.10;98125.69;5029667;28;19929;-62
2024/02/29 05:10:11;;;;;;;;;;;;;;;5.32;71.06;98125.94;5029191;28;19932;-62
2024/02/29 05:12:39;;;;;;;;;;;;;;;5.36;70.48;98127.81;5029326;28;19929;-62
2024/02/29 05:15:08;;;;;;;;;;;;;;;5.43;70.33;98128.38;5028626;28;19932;-63
2024/02/29 05:17:37;;;;;;;;;;;;;;;5.52;70.12;98121.31;5029151;28;19983;-61
2024/02/29 05:20:06;;;;;;;;;;;;;;;5.52;69.80;98124.00;5027059;28;20322;-61
2024/02/29 05:22:34;;;;;;;;;;;;;;;5.61;69.84;98123.47;5017682;28;19940;-62
2024/02/29 05:25:09;;;;;;;;;;;;;;;5.61;69.66;98116.19;5029771;28;19933;-61
2024/02/29 05:27:37;;;;;;;;;;;;;;;5.72;68.86;98120.47;5021493;28;20298;-61
2024/02/29 05:30:05;;;;;;;;;;;;;;;5.81;69.23;98123.41;5008442;28;19988;-62
2024/02/29 05:32:34;;;;;;;;;;;;;;;5.97;68.23;98132.28;5030052;28;20299;-63
2024/02/29 05:35:02;;;;;;;;;;;;;;;6.00;67.93;98124.44;5035482;28;20008;-63
2024/02/29 05:37:30;;;;;;;;;;;;;;;6.01;68.20;98117.13;5017591;28;19929;-62
2024/02/29 05:39:59;;;;;;;;;;;;;;;5.99;67.51;98116.63;5038732;28;19925;-61
2024/02/29 05:42:33;;;;;;;;;;;;;;;6.14;67.36;98121.16;5037498;28;20382;-61
2024/02/29 05:45:33;;;;;;;;;;;;;;;5.98;68.03;98117.72;5022635;28;19929;-62
2024/02/29 05:48:04;;;;;;;;;;;;;;;5.91;67.75;98111.75;5026688;28;19929;-61
2024/02/29 05:50:31;;;;;;;;;;;;;;;5.95;67.47;98110.16;5027097;28;19925;-61
2024/02/29 05:53:01;;;;;;;;;;;;;;;6.03;67.31;98109.59;5034197;28;19933;-61
2024/02/29 05:55:29;;;;;;;;;;;;;;;5.88;67.74;98106.94;5029171;28;20028;-63
2024/02/29 05:57:57;;;;;;;;;;;;;;;6.01;66.84;98107.16;5033004;28;20015;-61
2024/02/29 06:00:25;;;;;;;;;;;;;;;5.81;68.01;98106.44;5035822;28;19929;-61
2024/02/29 06:02:59;;;;;;;;;;;;;;;6.27;66.09;98099.75;5032779;28;19925;-61
2024/02/29 06:05:29;;;;;;;;;;;;;;;6.11;66.86;98110.91;5035252;28;19956;-62
2024/02/29 06:07:57;;;;;;;;;;;;;;;6.13;66.61;98112.25;5034881;28;19925;-61
2024/02/29 06:10:25;;;;;;;;;;;;;;;6.18;66.58;98101.44;5035077;28;19929;-61
2024/02/29 06:12:52;;;;;;;;;;;;;;;6.06;66.86;98103.63;5034264;28;19925;-61
2024/02/29 06:15:20;;;;;;;;;;;;;;;6.13;66.58;98097.97;5034280;28;19959;-61
2024/02/29 06:17:49;;;;;;;;;;;;;;;6.12;67.19;98099.81;5028667;28;19934;-62
2024/02/29 06:20:17;;;;;;;;;;;;;;;6.08;66.84;98104.19;5016230;28;20422;-62
2024/02/29 06:22:46;;;;;;;;;;;;;;;6.20;66.64;98098.44;5028962;28;19929;-62
2024/02/29 06:25:14;;;;;;;;;;;;;;;6.15;66.62;98101.19;5029170;28;19929;-61
2024/02/29 06:27:42;;;;;;;;;;;;;;;6.10;66.87;98104.69;5020701;28;20389;-61
2024/02/29 06:30:10;;;;;;;;;;;;;;;6.29;65.20;98100.28;5023671;28;20354;-61
2024/02/29 06:32:40;;;;;;;;;;;;;;;6.42;64.00;98100.75;5021229;28;20374;-61
2024/02/29 06:35:09;;;;;;;;;;;;;;;6.42;64.10;98100.75;5005548;28;19926;-61
2024/02/29 06:37:36;;;;;;;;;;;;;;;6.54;64.02;98090.41;5031189;28;19925;-61
2024/02/29 06:40:10;;;;;;;;;;;;;;;6.64;62.75;98093.03;5014386;28;20007;-61
2024/02/29 06:42:38;;;;;;;;;;;;;;;6.77;62.52;98091.63;5024241;28;20008;-61
2024/02/29 06:45:07;;;;;;;;;;;;;;;6.82;61.68;98086.97;5033044;28;19925;-61
2024/02/29 06:47:35;;;;;;;;;;;;;;;6.78;62.05;98085.13;5032993;28;19932;-61
2024/02/29 06:50:03;;;;;;;;;;;;;;;6.87;62.29;98083.44;5031684;28;19924;-61
2024/02/29 06:52:32;;;;;;;;;;;;;;;6.73;62.53;98077.84;5029303;28;19925;-62
2024/02/29 06:55:00;;;;;;;;;;;;;;;6.62;62.96;98084.44;5032395;28;19952;-61
2024/02/29 06:57:29;;;;;;;;;;;;;;;6.80;62.55;98077.53;5033386;28;19925;-61
2024/02/29 06:59:57;;;;;;;;;;;;;;;6.92;62.31;98072.56;5033418;28;19932;-61
2024/02/29 07:02:24;;;;;;;;;;;;;;;6.90;62.78;98072.03;5032974;28;19925;-60
2024/02/29 07:04:52;;;;;;;;;;;;;;;6.91;61.85;98073.66;5033070;28;19925;-62
2024/02/29 07:07:20;;;;;;;;;;;;;;;6.61;62.59;98085.50;5032699;28;20259;-61
2024/02/29 07:09:48;;;;;;;;;;;;;;;6.83;62.41;98079.69;5032810;28;19979;-61
2024/02/29 07:12:16;;;;;;;;;;;;;;;7.00;61.31;98074.66;5032559;28;19925;-61
2024/02/29 07:14:45;;;;;;;;;;;;;;;6.92;61.84;98069.84;5032966;28;19929;-61
2024/02/29 07:17:13;;;;;;;;;;;;;;;6.93;61.28;98065.28;5032429;28;19925;-61
2024/02/29 07:19:40;;;;;;;;;;;;;;;6.81;62.00;98068.34;5032624;28;19926;-61
2024/02/29 07:22:08;;;;;;;;;;;;;;;6.87;62.24;98063.69;5032951;28;19925;-62
2024/02/29 07:24:36;;;;;;;;;;;;;;;6.91;61.67;98064.75;5032232;28;20470;-62
2024/02/29 07:27:05;;;;;;;;;;;;;;;7.00;61.29;98063.84;5032192;28;19956;-61
2024/02/29 07:29:32;;;;;;;;;;;;;;;6.78;61.71;98060.81;5032410;28;19931;-62
2024/02/29 07:32:01;;;;;;;;;;;;;;;6.73;61.69;98055.47;5032721;28;19925;-61
2024/02/29 07:34:29;;;;;;;;;;;;;;;6.85;61.68;98057.78;5032795;28;20003;-61
2024/02/29 07:36:57;;;;;;;;;;;;;;;6.85;61.53;98060.47;5011193;28;19929;-61
2024/02/29 07:39:25;;;;;;;;;;;;;;;7.04;60.57;98069.50;5022416;28;19925;-61
2024/02/29 07:41:52;;;;;;;;;;;;;;;6.75;61.93;98059.47;5032527;28;20393;-60
2024/02/29 07:44:21;;;;;;;;;;;;;;;6.83;61.77;98058.88;5032144;28;19947;-61
2024/02/29 07:46:48;;;;;;;;;;;;;;;6.77;62.29;98070.00;5031929;28;19951;-61
2024/02/29 07:49:17;;;;;;;;;;;;;;;6.95;61.87;98065.78;5032552;28;19933;-61
2024/02/29 07:51:46;;;;;;;;;;;;;;;6.95;62.11;98065.78;5031995;28;19932;-60
2024/02/29 07:54:15;;;;;;;;;;;;;;;7.06;61.64;98059.22;5031944;28;19972;-61
2024/02/29 07:56:42;;;;;;;;;;;;;;;7.13;62.04;98058.88;5031546;28;19953;-60
2024/02/29 07:59:10;;;;;;;;;;;;;;;7.21;61.41;98059.06;5032239;28;19932;-60
2024/02/29 08:01:38;;;;;;;;;;;;;;;7.28;60.67;98054.13;5031733;28;20287;-61
2024/02/29 08:04:06;;;;;;;;;;;;;;;7.01;61.65;98051.16;5031981;28;19925;-60
2024/02/29 08:06:35;;;;;;;;;;;;;;;7.15;61.23;98041.31;5031582;28;19930;-62
2024/02/29 08:09:05;;;;;;;;;;;;;;;7.14;60.97;98036.16;5031652;28;19925;-61
2024/02/29 08:11:35;;;;;;;;;;;;;;;7.20;60.79;98041.25;5030934;28;19925;-60
2024/02/29 08:14:04;;;;;;;;;;;;;;;7.25;60.42;98033.09;5050514;28;20023;-62
2024/02/29 08:16:32;;;;;;;;;;;;;;;7.24;60.42;98036.06;5038396;28;19924;-60
2024/02/29 08:18:59;;;;;;;;;;;;;;;7.15;60.61;98029.69;5038755;28;19979;-60
2024/02/29 08:21:27;;;;;;;;;;;;;;;7.30;60.92;98029.53;5036059;28;20571;-61
2024/02/29 08:23:56;;;;;;;;;;;;;;;7.25;60.15;98025.00;5030789;28;19930;-61
2024/02/29 08:26:24;;;;;;;;;;;;;;;7.56;59.98;98027.31;5029682;28;20450;-61
2024/02/29 08:28:52;;;;;;;;;;;;;;;7.69;58.39;98015.81;5029159;28;19976;-60
2024/02/29 08:31:20;;;;;;;;;;;;;;;7.55;58.78;98017.59;5037734;28;20367;-60
2024/02/29 08:33:48;;;;;;;;;;;;;;;7.58;57.71;98019.75;5032121;28;20003;-61
2024/02/29 08:36:15;;;;;;;;;;;;;;;7.82;56.66;98015.09;5026059;28;19929;-60
2024/02/29 08:38:43;;;;;;;;;;;;;;;7.87;56.35;98015.03;5020627;28;19929;-61
2024/02/29 08:41:12;;;;;;;;;;;;;;;7.70;57.52;98011.22;5025307;28;20351;-62
2024/02/29 08:43:42;;;;;;;;;;;;;;;7.81;56.46;98009.97;5026409;28;19925;-61
2024/02/29 08:46:10;;;;;;;;;;;;;;;7.79;56.89;98004.88;5028712;28;20963;-61
2024/02/29 08:48:38;;;;;;;;;;;;;;;7.88;56.74;98002.31;5032780;28;19960;-61
2024/02/29 08:51:05;;;;;;;;;;;;;;;8.02;56.92;97997.00;5025261;28;20494;-61
2024/02/29 08:53:33;;;;;;;;;;;;;;;8.06;57.00;97998.03;5026268;28;19932;-61
2024/02/29 08:56:01;;;;;;;;;;;;;;;7.90;56.41;97993.91;5029735;28;19925;-61
2024/02/29 08:58:32;;;;;;;;;;;;;;;8.07;57.10;97996.91;5032700;28;20364;-61
2024/02/29 09:01:02;;;;;;;;;;;;;;;8.14;56.16;98000.06;5026737;28;19925;-61
2024/02/29 09:03:29;;;;;;;;;;;;;;;8.31;56.12;97997.66;5023250;28;20352;-61
2024/02/29 09:05:57;;;;;;;;;;;;;;;8.31;55.72;97994.13;5011997;28;19928;-61
2024/02/29 09:08:25;;;;;;;;;;;;;;;8.23;55.96;97992.88;5028909;28;19960;-61
2024/02/29 09:10:54;;;;;;;;;;;;;;;8.13;56.35;97998.44;5031445;28;19925;-61
2024/02/29 09:13:21;;;;;;;;;;;;;;;8.11;56.48;97989.84;5032607;28;19928;-61
2024/02/29 09:15:58;;;;;;;;;;;;;;;8.29;56.75;97986.28;5033318;28;19925;-61
2024/02/29 09:18:26;;;;;;;;;;;;;;;8.28;56.03;97984.69;5032430;28;19936;-61
2024/02/29 09:20:54;;;;;;;;;;;;;;;8.53;56.34;97980.00;5033144;28;19935;-61
2024/02/29 09:23:26;;;;;;;;;;;;;;;8.30;55.67;97970.84;5030922;28;19932;-61
2024/02/29 09:25:53;;;;;;;;;;;;;;;8.48;55.32;97969.28;5025069;28;19925;-61
2024/02/29 09:28:24;;;;;;;;;;;;;;;8.40;55.96;97965.31;5036482;28;19929;-61
2024/02/29 09:30:53;;;;;;;;;;;;;;;8.56;55.85;97965.88;5032003;28;19929;-61
2024/02/29 09:33:24;;;;;;;;;;;;;;;8.55;55.10;97959.66;5035947;28;20019;-61
2024/02/29 09:35:57;;;;;;;;;;;;;;;8.43;55.58;97964.72;5028082;28;20315;-61
2024/02/29 09:38:25;;;;;;;;;;;;;;;8.50;55.26;97962.44;5028185;28;20393;-61
2024/02/29 09:40:52;;;;;;;;;;;;;;;8.40;55.33;97955.28;5049746;28;19932;-61
2024/02/29 09:43:22;;;;;;;;;;;;;;;8.45;55.51;97945.47;5046885;28;19925;-61
2024/02/29 09:45:50;;;;;;;;;;;;;;;8.48;55.96;97945.69;5045679;28;19979;-61
2024/02/29 09:48:18;;;;;;;;;;;;;;;8.56;55.14;97936.88;5032355;28;19972;-60
2024/02/29 09:50:47;;;;;;;;;;;;;;;8.52;55.41;97935.06;5032001;28;19972;-60
2024/02/29 09:53:14;;;;;;;;;;;;;;;8.36;55.57;97934.50;5018658;28;20023;-60
2024/02/29 09:55:42;;;;;;;;;;;;;;;8.66;55.03;97927.78;5030772;28;19926;-61
2024/02/29 09:58:16;;;;;;;;;;;;;;;8.70;54.82;97928.81;5031933;28;19929;-60
2024/02/29 10:00:44;;;;;;;;;;;;;;;8.67;55.01;97926.66;5031149;28;19929;-60
2024/02/29 10:03:12;;;;;;;;;;;;;;;8.80;54.46;97928.63;5031265;28;19925;-60
2024/02/29 10:05:40;;;;;;;;;;;;;;;8.73;55.55;97917.34;5019537;28;20020;-60
2024/02/29 10:08:10;;;;;;;;;;;;;;;8.64;54.66;97922.66;5030894;28;20004;-60
2024/02/29 10:10:38;;;;;;;;;;;;;;;8.84;54.29;97915.25;5031398;28;19997;-60
2024/02/29 10:13:07;;;;;;;;;;;;;;;8.61;55.09;97912.41;5029429;28;19929;-60
2024/02/29 10:15:34;;;;;;;;;;;;;;;8.67;54.12;97899.59;5031066;28;19929;-61
2024/02/29 10:18:03;;;;;;;;;;;;;;;8.92;54.51;97895.59;5031725;28;19925;-60
2024/02/29 10:20:32;;;;;;;;;;;;;;;9.09;53.91;97900.41;5043514;28;19931;-61
2024/02/29 10:22:59;;;;;;;;;;;;;;;8.98;54.29;97893.59;5042298;28;19936;-60
2024/02/29 10:25:30;;;;;;;;;;;;;;;9.13;54.29;97896.00;5022826;28;20354;-60
2024/02/29 10:28:01;;;;;;;;;;;;;;;9.37;53.98;97885.72;5027671;28;19935;-60
2024/02/29 10:30:29;;;;;;;;;;;;;;;9.39;53.22;97894.38;5030017;28;19937;-60
2024/02/29 10:32:58;;;;;;;;;;;;;;;9.44;52.93;97888.84;5030517;28;20019;-60
2024/02/29 10:35:26;;;;;;;;;;;;;;;9.42;53.04;97888.34;5030346;28;19932;-61
2024/02/29 10:37:55;;;;;;;;;;;;;;;9.41;53.15;97886.72;5025123;28;19933;-61
2024/02/29 10:40:24;;;;;;;;;;;;;;;9.52;53.05;97881.09;5026564;28;19972;-61
2024/02/29 10:42:55;;;;;;;;;;;;;;;9.63;52.86;97877.03;5027354;28;20290;-61
2024/02/29 10:45:24;;;;;;;;;;;;;;;9.79;52.73;97864.72;5030312;28;19932;-61
2024/02/29 10:47:56;;;;;;;;;;;;;;;9.94;52.10;97864.38;5021198;28;19928;-60
2024/02/29 10:50:25;;;;;;;;;;;;;;;10.10;52.35;97859.38;5030004;28;19925;-59
2024/02/29 10:52:56;;;;;;;;;;;;;;;9.88;52.56;97845.81;5025630;28;19932;-60
2024/02/29 10:55:25;;;;;;;;;;;;;;;9.82;52.52;97852.47;5028745;28;19931;-62
2024/02/29 10:57:57;;;;;;;;;;;;;;;9.95;53.02;97851.59;5027651;28;19929;-60
2024/02/29 11:00:25;;;;;;;;;;;;;;;10.01;52.97;97852.28;5028676;28;20294;-60
2024/02/29 11:02:53;;;;;;;;;;;;;;;10.02;52.15;97846.56;5037513;28;19925;-59
2024/02/29 11:05:21;;;;;;;;;;;;;;;10.11;53.01;97831.13;5025510;28;19933;-59
2024/02/29 11:07:49;;;;;;;;;;;;;;;10.19;52.85;97824.94;5028039;28;20378;-60
2024/02/29 11:10:17;;;;;;;;;;;;;;;10.22;52.09;97823.50;5028809;28;19925;-60
2024/02/29 11:12:48;;;;;;;;;;;;;;;10.31;52.12;97820.88;5027588;28;19983;-60
2024/02/29 11:15:23;;;;;;;;;;;;;;;10.28;52.31;97819.63;5028731;28;19936;-60
2024/02/29 11:17:53;;;;;;;;;;;;;;;10.27;51.98;97812.56;5029377;28;19925;-60
2024/02/29 11:20:21;;;;;;;;;;;;;;;10.47;51.68;97806.59;5029358;28;19976;-60
2024/02/29 11:22:49;;;;;;;;;;;;;;;10.49;51.99;97808.97;5027335;28;19933;-60
2024/02/29 11:25:20;;;;;;;;;;;;;;;10.51;51.53;97805.97;5029867;28;19976;-60
2024/02/29 11:27:48;;;;;;;;;;;;;;;10.22;51.30;97797.16;5029267;28;19933;-60
2024/02/29 11:30:20;;;;;;;;;;;;;;;10.30;52.29;97795.66;5035760;28;20056;-60
2024/02/29 11:32:48;;;;;;;;;;;;;;;10.44;52.00;97793.66;5018935;28;19929;-60
2024/02/29 11:35:16;;;;;;;;;;;;;;;10.35;51.84;97783.84;5028230;28;19971;-60
2024/02/29 11:37:44;;;;;;;;;;;;;;;10.41;52.31;97782.59;5034830;28;20664;-60
2024/02/29 11:40:13;;;;;;;;;;;;;;;10.51;51.45;97778.81;5024898;28;19925;-60
2024/02/29 11:42:40;;;;;;;;;;;;;;;10.18;52.31;97777.19;5028837;28;19980;-60
2024/02/29 11:45:09;;;;;;;;;;;;;;;10.26;51.62;97772.94;5028794;28;19991;-60
2024/02/29 11:47:39;;;;;;;;;;;;;;;10.32;52.49;97768.97;5031144;28;20446;-60
2024/02/29 11:50:07;;;;;;;;;;;;;;;10.40;52.75;97765.50;5029514;28;19932;-60
2024/02/29 11:52:35;;;;;;;;;;;;;;;10.57;52.26;97755.81;5030195;28;19925;-60
2024/02/29 11:55:03;;;;;;;;;;;;;;;10.54;51.80;97759.16;5017091;28;19933;-61
2024/02/29 11:57:30;;;;;;;;;;;;;;;10.65;52.46;97749.59;5033244;28;20035;-60
2024/02/29 11:59:58;;;;;;;;;;;;;;;10.86;51.69;97745.19;5029868;28;19933;-60
2024/02/29 12:02:26;;;;;;;;;;;;;;;10.75;51.26;97739.25;5025531;28;19929;-60
2024/02/29 12:04:55;;;;;;;;;;;;;;;10.79;51.50;97739.41;5025819;28;19961;-61
2024/02/29 12:07:23;;;;;;;;;;;;;;;10.79;50.72;97735.91;5026603;28;19961;-60
2024/02/29 12:09:51;;;;;;;;;;;;;;;10.82;51.59;97725.22;5028075;28;20015;-60
2024/02/29 12:12:20;;;;;;;;;;;;;;;11.01;50.68;97720.25;5030229;28;20419;-60
2024/02/29 12:14:48;;;;;;;;;;;;;;;11.00;50.96;97718.66;5026041;28;19926;-60
2024/02/29 12:17:16;;;;;;;;;;;;;;;10.75;51.26;97712.06;5027638;28;19971;-60
2024/02/29 12:19:44;;;;;;;;;;;;;;;10.82;50.60;97700.75;5028502;28;19929;-60
2024/02/29 12:22:13;;;;;;;;;;;;;;;10.81;50.81;97699.13;5029093;28;19929;-60
2024/02/29 12:24:42;;;;;;;;;;;;;;;10.75;51.58;97697.69;4994933;28;19936;-60
2024/02/29 12:27:10;;;;;;;;;;;;;;;10.82;50.39;97689.09;5024696;28;19957;-60
2024/02/29 12:29:38;;;;;;;;;;;;;;;10.59;51.61;97693.81;5030070;28;19929;-60
2024/02/29 12:32:05;;;;;;;;;;;;;;;10.77;51.58;97691.94;5028623;28;19988;-60
2024/02/29 12:34:33;;;;;;;;;;;;;;;10.82;51.69;97679.00;5023926;28;20597;-60
2024/02/29 12:37:04;;;;;;;;;;;;;;;11.04;51.46;97679.97;5025621;28;19932;-60
2024/02/29 12:39:33;;;;;;;;;;;;;;;11.04;50.64;97675.34;5027757;28;20032;-60
2024/02/29 12:42:01;;;;;;;;;;;;;;;11.10;50.19;97675.97;5028289;28;20457;-61
2024/02/29 12:44:29;;;;;;;;;;;;;;;11.04;51.04;97675.34;5027916;28;19933;-60
2024/02/29 12:46:58;;;;;;;;;;;;;;;11.02;51.26;97667.50;5017331;28;20422;-61
2024/02/29 12:49:25;;;;;;;;;;;;;;;11.07;50.65;97663.00;5026627;28;20032;-60
2024/02/29 12:51:53;;;;;;;;;;;;;;;10.79;51.05;97662.53;5021848;28;20314;-60
2024/02/29 12:54:22;;;;;;;;;;;;;;;11.06;50.90;97662.22;5022519;28;19929;-60
2024/02/29 12:56:51;;;;;;;;;;;;;;;11.11;50.29;97664.78;5027403;28;19936;-60
2024/02/29 12:59:19;;;;;;;;;;;;;;;11.15;50.61;97664.94;5021355;28;19925;-60
2024/02/29 13:01:52;;;;;;;;;;;;;;;10.96;51.20;97657.91;5017623;28;19995;-60